sensor_id;sensor_type;location;lat;lon;timestamp;pressure;altitude;pressure_sealevel;temperature;humidity
61357;BME280;47227;46.752;23.576;2022-12-20T00:01:33;98118.27;;;-6.67;84.29
61357;BME280;47227;46.752;23.576;2022-12-20T00:04:03;98121.61;;;-6.86;84.44
61357;BME280;47227;46.752;23.576;2022-12-20T00:06:34;98115.02;;;-6.92;83.13
61357;BME280;47227;46.752;23.576;2022-12-20T00:09:04;98113.37;;;-7.11;85.49
61357;BME280;47227;46.752;23.576;2022-12-20T00:11:33;98115.91;;;-7.19;86.33
61357;BME280;47227;46.752;23.576;2022-12-20T00:14:02;98114.26;;;-7.20;85.26
61357;BME280;47227;46.752;23.576;2022-12-20T00:16:30;98117.48;;;-7.20;84.54
61357;BME280;47227;46.752;23.576;2022-12-20T00:19:00;98117.77;;;-7.16;84.30
61357;BME280;47227;46.752;23.576;2022-12-20T00:21:29;98120.13;;;-7.15;84.81
61357;BME280;47227;46.752;23.576;2022-12-20T00:23:58;98119.92;;;-7.12;83.66
61357;BME280;47227;46.752;23.576;2022-12-20T00:26:29;98115.23;;;-7.07;83.26
61357;BME280;47227;46.752;23.576;2022-12-20T00:28:59;98111.59;;;-7.03;83.41
61357;BME280;47227;46.752;23.576;2022-12-20T00:31:28;98116.48;;;-7.00;83.24
61357;BME280;47227;46.752;23.576;2022-12-20T00:33:58;98121.77;;;-6.97;83.03
61357;BME280;47227;46.752;23.576;2022-12-20T00:36:28;98109.67;;;-6.97;84.80
61357;BME280;47227;46.752;23.576;2022-12-20T00:38:57;98116.67;;;-6.94;83.57
61357;BME280;47227;46.752;23.576;2022-12-20T00:41:28;98113.25;;;-6.88;83.30
61357;BME280;47227;46.752;23.576;2022-12-20T00:43:56;98108.08;;;-6.82;83.64
61357;BME280;47227;46.752;23.576;2022-12-20T00:46:25;98107.40;;;-6.79;83.47
61357;BME280;47227;46.752;23.576;2022-12-20T00:48:53;98108.86;;;-6.80;83.59
61357;BME280;47227;46.752;23.576;2022-12-20T00:51:24;98107.23;;;-6.84;83.99
61357;BME280;47227;46.752;23.576;2022-12-20T00:53:53;98109.56;;;-6.92;84.13
61357;BME280;47227;46.752;23.576;2022-12-20T00:56:22;98110.88;;;-6.94;83.38
61357;BME280;47227;46.752;23.576;2022-12-20T00:58:57;98108.48;;;-6.97;82.63
61357;BME280;47227;46.752;23.576;2022-12-20T01:01:29;98104.43;;;-7.00;83.05
61357;BME280;47227;46.752;23.576;2022-12-20T01:03:58;98106.39;;;-7.07;82.96
61357;BME280;47227;46.752;23.576;2022-12-20T01:06:26;98108.11;;;-7.13;82.85
61357;BME280;47227;46.752;23.576;2022-12-20T01:08:55;98101.38;;;-7.20;82.04
61357;BME280;47227;46.752;23.576;2022-12-20T01:11:28;98097.88;;;-7.27;82.14
61357;BME280;47227;46.752;23.576;2022-12-20T01:14:00;98099.60;;;-7.33;82.22
61357;BME280;47227;46.752;23.576;2022-12-20T01:16:35;98094.45;;;-7.38;83.24
61357;BME280;47227;46.752;23.576;2022-12-20T01:19:05;98095.86;;;-7.42;83.85
61357;BME280;47227;46.752;23.576;2022-12-20T01:21:33;98092.90;;;-7.44;85.04
61357;BME280;47227;46.752;23.576;2022-12-20T01:24:01;98094.42;;;-7.44;84.40
61357;BME280;47227;46.752;23.576;2022-12-20T01:26:29;98094.86;;;-7.43;85.20
61357;BME280;47227;46.752;23.576;2022-12-20T01:28:59;98096.81;;;-7.38;84.26
61357;BME280;47227;46.752;23.576;2022-12-20T01:31:28;98091.02;;;-7.38;84.78
61357;BME280;47227;46.752;23.576;2022-12-20T01:33:56;98085.23;;;-7.41;85.47
61357;BME280;47227;46.752;23.576;2022-12-20T01:36:28;98086.14;;;-7.35;84.51
61357;BME280;47227;46.752;23.576;2022-12-20T01:39:05;98091.65;;;-7.31;84.97
61357;BME280;47227;46.752;23.576;2022-12-20T01:41:34;98083.02;;;-7.29;84.71
61357;BME280;47227;46.752;23.576;2022-12-20T01:44:47;98082.50;;;-7.26;84.52
61357;BME280;47227;46.752;23.576;2022-12-20T01:46:53;98078.02;;;-7.16;84.28
61357;BME280;47227;46.752;23.576;2022-12-20T01:49:26;98073.36;;;-7.09;84.06
61357;BME280;47227;46.752;23.576;2022-12-20T01:52:03;98073.13;;;-7.03;83.71
61357;BME280;47227;46.752;23.576;2022-12-20T01:54:36;98066.59;;;-6.99;83.19
61357;BME280;47227;46.752;23.576;2022-12-20T01:57:10;98066.64;;;-6.97;83.04
61357;BME280;47227;46.752;23.576;2022-12-20T01:59:40;98061.41;;;-6.91;83.07
61357;BME280;47227;46.752;23.576;2022-12-20T02:02:11;98053.48;;;-6.90;83.17
61357;BME280;47227;46.752;23.576;2022-12-20T02:04:39;98054.96;;;-6.92;82.83
61357;BME280;47227;46.752;23.576;2022-12-20T02:07:11;98052.55;;;-6.97;82.95
61357;BME280;47227;46.752;23.576;2022-12-20T02:09:40;98056.23;;;-7.05;82.99
61357;BME280;47227;46.752;23.576;2022-12-20T02:12:19;98060.63;;;-7.10;82.27
61357;BME280;47227;46.752;23.576;2022-12-20T02:15:12;98062.67;;;-7.13;82.46
61357;BME280;47227;46.752;23.576;2022-12-20T02:18:05;98063.60;;;-7.17;82.95
61357;BME280;47227;46.752;23.576;2022-12-20T02:20:47;98062.18;;;-7.21;83.03
61357;BME280;47227;46.752;23.576;2022-12-20T02:23:52;98064.41;;;-7.27;83.01
61357;BME280;47227;46.752;23.576;2022-12-20T02:29:32;98057.79;;;-7.39;82.63
61357;BME280;47227;46.752;23.576;2022-12-20T02:32:13;98055.58;;;-7.42;82.39
61357;BME280;47227;46.752;23.576;2022-12-20T02:34:44;98051.27;;;-7.41;82.38
61357;BME280;47227;46.752;23.576;2022-12-20T02:37:13;98046.63;;;-7.40;82.83
61357;BME280;47227;46.752;23.576;2022-12-20T02:39:43;98050.59;;;-7.38;83.24
61357;BME280;47227;46.752;23.576;2022-12-20T02:42:17;98049.52;;;-7.34;82.60
61357;BME280;47227;46.752;23.576;2022-12-20T02:44:53;98044.80;;;-7.29;82.74
61357;BME280;47227;46.752;23.576;2022-12-20T02:50:34;98032.80;;;-7.22;82.44
61357;BME280;47227;46.752;23.576;2022-12-20T02:53:05;98036.45;;;-7.20;82.72
61357;BME280;47227;46.752;23.576;2022-12-20T02:55:45;98033.58;;;-7.18;82.58
61357;BME280;47227;46.752;23.576;2022-12-20T02:58:22;98030.52;;;-7.15;82.67
61357;BME280;47227;46.752;23.576;2022-12-20T03:00:58;98025.70;;;-7.09;82.68
61357;BME280;47227;46.752;23.576;2022-12-20T03:03:32;98023.10;;;-7.05;82.91
61357;BME280;47227;46.752;23.576;2022-12-20T03:06:02;98018.06;;;-7.03;82.60
61357;BME280;47227;46.752;23.576;2022-12-20T03:08:30;98014.14;;;-7.00;82.70
61357;BME280;47227;46.752;23.576;2022-12-20T03:10:58;98010.50;;;-6.99;82.54
61357;BME280;47227;46.752;23.576;2022-12-20T03:13:27;98007.42;;;-7.02;82.22
61357;BME280;47227;46.752;23.576;2022-12-20T03:15:59;97999.94;;;-7.04;82.26
61357;BME280;47227;46.752;23.576;2022-12-20T03:18:27;98001.06;;;-7.09;81.96
61357;BME280;47227;46.752;23.576;2022-12-20T03:20:55;97999.96;;;-7.13;81.59
61357;BME280;47227;46.752;23.576;2022-12-20T03:23:23;97996.02;;;-7.18;82.32
61357;BME280;47227;46.752;23.576;2022-12-20T03:25:51;97991.94;;;-7.24;82.15
61357;BME280;47227;46.752;23.576;2022-12-20T03:28:26;97990.62;;;-7.32;82.45
61357;BME280;47227;46.752;23.576;2022-12-20T03:30:54;97991.52;;;-7.39;82.71
61357;BME280;47227;46.752;23.576;2022-12-20T03:33:23;97994.39;;;-7.47;83.40
61357;BME280;47227;46.752;23.576;2022-12-20T03:35:51;97995.98;;;-7.51;82.73
61357;BME280;47227;46.752;23.576;2022-12-20T03:38:18;97993.95;;;-7.54;82.60
61357;BME280;47227;46.752;23.576;2022-12-20T03:40:47;97988.77;;;-7.55;82.07
61357;BME280;47227;46.752;23.576;2022-12-20T03:43:17;97988.02;;;-7.57;82.16
61357;BME280;47227;46.752;23.576;2022-12-20T03:45:45;97986.33;;;-7.57;81.86
61357;BME280;47227;46.752;23.576;2022-12-20T03:48:13;97988.02;;;-7.57;82.40
61357;BME280;47227;46.752;23.576;2022-12-20T03:50:41;97982.86;;;-7.53;82.52
61357;BME280;47227;46.752;23.576;2022-12-20T03:53:09;97977.46;;;-7.48;82.39
61357;BME280;47227;46.752;23.576;2022-12-20T03:55:40;97976.48;;;-7.46;82.83
61357;BME280;47227;46.752;23.576;2022-12-20T03:58:12;97970.33;;;-7.43;82.02
61357;BME280;47227;46.752;23.576;2022-12-20T04:00:40;97977.34;;;-7.41;83.10
61357;BME280;47227;46.752;23.576;2022-12-20T04:03:21;97982.31;;;-7.33;82.50
61357;BME280;47227;46.752;23.576;2022-12-20T04:05:49;97978.65;;;-7.26;82.16
61357;BME280;47227;46.752;23.576;2022-12-20T04:08:17;97977.83;;;-7.21;82.78
61357;BME280;47227;46.752;23.576;2022-12-20T04:10:45;97978.96;;;-7.20;82.13
61357;BME280;47227;46.752;23.576;2022-12-20T04:13:26;97981.56;;;-7.18;82.26
61357;BME280;47227;46.752;23.576;2022-12-20T04:15:54;97981.89;;;-7.18;82.19
61357;BME280;47227;46.752;23.576;2022-12-20T04:18:28;97977.70;;;-7.19;82.08
61357;BME280;47227;46.752;23.576;2022-12-20T04:20:59;97974.76;;;-7.20;81.95
61357;BME280;47227;46.752;23.576;2022-12-20T04:23:29;97973.51;;;-7.22;82.15
61357;BME280;47227;46.752;23.576;2022-12-20T04:25:58;97971.66;;;-7.28;81.66
61357;BME280;47227;46.752;23.576;2022-12-20T04:28:27;97969.01;;;-7.34;81.95
61357;BME280;47227;46.752;23.576;2022-12-20T04:30:55;97966.25;;;-7.43;81.68
61357;BME280;47227;46.752;23.576;2022-12-20T04:33:26;97970.46;;;-7.48;81.59
61357;BME280;47227;46.752;23.576;2022-12-20T04:35:54;97974.81;;;-7.52;81.09
61357;BME280;47227;46.752;23.576;2022-12-20T04:38:22;97976.08;;;-7.56;81.48
61357;BME280;47227;46.752;23.576;2022-12-20T04:40:53;97973.98;;;-7.58;81.66
61357;BME280;47227;46.752;23.576;2022-12-20T04:43:23;97972.56;;;-7.57;82.02
61357;BME280;47227;46.752;23.576;2022-12-20T04:45:55;97971.92;;;-7.55;81.73
61357;BME280;47227;46.752;23.576;2022-12-20T04:48:25;97970.58;;;-7.52;81.82
61357;BME280;47227;46.752;23.576;2022-12-20T04:51:14;97967.45;;;-7.48;82.08
61357;BME280;47227;46.752;23.576;2022-12-20T04:53:43;97965.47;;;-7.44;81.83
61357;BME280;47227;46.752;23.576;2022-12-20T04:56:34;97966.59;;;-7.37;81.86
61357;BME280;47227;46.752;23.576;2022-12-20T04:59:08;97967.80;;;-7.29;82.18
61357;BME280;47227;46.752;23.576;2022-12-20T05:01:38;97967.14;;;-7.21;82.12
61357;BME280;47227;46.752;23.576;2022-12-20T05:04:07;97962.39;;;-7.15;81.74
61357;BME280;47227;46.752;23.576;2022-12-20T05:06:36;97964.09;;;-7.13;81.63
61357;BME280;47227;46.752;23.576;2022-12-20T05:09:04;97960.71;;;-7.10;82.10
61357;BME280;47227;46.752;23.576;2022-12-20T05:11:32;97964.49;;;-7.08;81.54
61357;BME280;47227;46.752;23.576;2022-12-20T05:14:00;97962.85;;;-7.06;81.63
61357;BME280;47227;46.752;23.576;2022-12-20T05:16:28;97952.71;;;-7.05;81.68
61357;BME280;47227;46.752;23.576;2022-12-20T05:18:58;97954.34;;;-7.01;81.68
61357;BME280;47227;46.752;23.576;2022-12-20T05:21:26;97953.40;;;-7.00;81.81
61357;BME280;47227;46.752;23.576;2022-12-20T05:24:10;97951.68;;;-6.99;81.71
61357;BME280;47227;46.752;23.576;2022-12-20T05:27:02;97946.17;;;-7.04;81.50
61357;BME280;47227;46.752;23.576;2022-12-20T05:29:30;97947.41;;;-7.07;81.52
61357;BME280;47227;46.752;23.576;2022-12-20T05:31:58;97953.95;;;-7.11;81.13
61357;BME280;47227;46.752;23.576;2022-12-20T05:34:27;97951.45;;;-7.17;81.25
61357;BME280;47227;46.752;23.576;2022-12-20T05:36:55;97952.89;;;-7.24;81.14
61357;BME280;47227;46.752;23.576;2022-12-20T05:39:25;97952.95;;;-7.31;81.03
61357;BME280;47227;46.752;23.576;2022-12-20T05:41:54;97951.41;;;-7.36;81.14
61357;BME280;47227;46.752;23.576;2022-12-20T05:44:24;97951.80;;;-7.43;81.19
61357;BME280;47227;46.752;23.576;2022-12-20T05:46:54;97953.70;;;-7.46;81.26
61357;BME280;47227;46.752;23.576;2022-12-20T05:49:26;97943.96;;;-7.47;81.73
61357;BME280;47227;46.752;23.576;2022-12-20T05:51:55;97945.34;;;-7.45;81.14
61357;BME280;47227;46.752;23.576;2022-12-20T05:54:25;97947.48;;;-7.41;81.32
61357;BME280;47227;46.752;23.576;2022-12-20T05:57:10;97940.98;;;-7.35;81.22
61357;BME280;47227;46.752;23.576;2022-12-20T05:59:39;97940.39;;;-7.28;82.32
61357;BME280;47227;46.752;23.576;2022-12-20T06:02:14;97943.48;;;-7.23;82.31
61357;BME280;47227;46.752;23.576;2022-12-20T06:04:43;97945.30;;;-7.17;81.64
61357;BME280;47227;46.752;23.576;2022-12-20T06:07:16;97947.43;;;-7.10;81.77
61357;BME280;47227;46.752;23.576;2022-12-20T06:09:48;97944.83;;;-7.01;81.67
61357;BME280;47227;46.752;23.576;2022-12-20T06:12:18;97942.18;;;-6.91;81.60
61357;BME280;47227;46.752;23.576;2022-12-20T06:14:47;97943.14;;;-6.82;81.22
61357;BME280;47227;46.752;23.576;2022-12-20T06:17:17;97940.45;;;-6.72;81.41
61357;BME280;47227;46.752;23.576;2022-12-20T06:19:46;97932.81;;;-6.62;81.34
61357;BME280;47227;46.752;23.576;2022-12-20T06:22:16;97927.81;;;-6.55;81.21
61357;BME280;47227;46.752;23.576;2022-12-20T06:24:49;97928.44;;;-6.49;81.27
61357;BME280;47227;46.752;23.576;2022-12-20T06:27:20;97934.08;;;-6.42;81.48
61357;BME280;47227;46.752;23.576;2022-12-20T06:29:57;97935.45;;;-6.44;80.10
61357;BME280;47227;46.752;23.576;2022-12-20T06:32:39;97934.71;;;-6.49;80.29
61357;BME280;47227;46.752;23.576;2022-12-20T06:35:08;97934.67;;;-6.51;80.55
61357;BME280;47227;46.752;23.576;2022-12-20T06:37:39;97939.21;;;-6.53;80.13
61357;BME280;47227;46.752;23.576;2022-12-20T06:40:09;97936.77;;;-6.55;79.93
61357;BME280;47227;46.752;23.576;2022-12-20T06:42:47;97937.86;;;-6.56;80.20
61357;BME280;47227;46.752;23.576;2022-12-20T06:45:22;97935.09;;;-6.55;80.21
61357;BME280;47227;46.752;23.576;2022-12-20T06:48:00;97936.58;;;-6.54;80.44
61357;BME280;47227;46.752;23.576;2022-12-20T06:50:32;97939.39;;;-6.56;80.14
61357;BME280;47227;46.752;23.576;2022-12-20T06:53:00;97938.75;;;-6.64;79.88
61357;BME280;47227;46.752;23.576;2022-12-20T06:55:29;97940.81;;;-6.72;79.69
61357;BME280;47227;46.752;23.576;2022-12-20T06:57:57;97936.70;;;-6.72;80.21
61357;BME280;47227;46.752;23.576;2022-12-20T07:00:28;97932.73;;;-6.71;80.05
61357;BME280;47227;46.752;23.576;2022-12-20T07:02:56;97935.91;;;-6.67;80.18
61357;BME280;47227;46.752;23.576;2022-12-20T07:05:24;97934.67;;;-6.62;80.61
61357;BME280;47227;46.752;23.576;2022-12-20T07:07:52;97936.47;;;-6.55;80.41
61357;BME280;47227;46.752;23.576;2022-12-20T07:10:20;97935.52;;;-6.48;80.92
61357;BME280;47227;46.752;23.576;2022-12-20T07:12:48;97933.02;;;-6.43;80.37
61357;BME280;47227;46.752;23.576;2022-12-20T07:15:16;97930.90;;;-6.37;80.03
61357;BME280;47227;46.752;23.576;2022-12-20T07:17:48;97935.38;;;-6.28;80.42
61357;BME280;47227;46.752;23.576;2022-12-20T07:20:18;97933.55;;;-6.18;80.31
61357;BME280;47227;46.752;23.576;2022-12-20T07:22:47;97934.19;;;-6.04;80.76
61357;BME280;47227;46.752;23.576;2022-12-20T07:25:15;97933.97;;;-5.94;80.37
61357;BME280;47227;46.752;23.576;2022-12-20T07:27:47;97938.41;;;-5.84;80.27
61357;BME280;47227;46.752;23.576;2022-12-20T07:30:18;97942.09;;;-5.78;79.43
61357;BME280;47227;46.752;23.576;2022-12-20T07:32:50;97940.48;;;-5.74;79.06
61357;BME280;47227;46.752;23.576;2022-12-20T07:35:18;97940.13;;;-5.69;78.78
61357;BME280;47227;46.752;23.576;2022-12-20T07:37:46;97938.55;;;-5.61;79.26
61357;BME280;47227;46.752;23.576;2022-12-20T07:40:15;97938.08;;;-5.52;79.55
61357;BME280;47227;46.752;23.576;2022-12-20T07:42:48;97942.04;;;-5.45;79.27
61357;BME280;47227;46.752;23.576;2022-12-20T07:45:18;97937.62;;;-5.45;78.50
61357;BME280;47227;46.752;23.576;2022-12-20T07:47:49;97939.18;;;-5.46;78.77
61357;BME280;47227;46.752;23.576;2022-12-20T07:50:18;97937.58;;;-5.45;78.79
61357;BME280;47227;46.752;23.576;2022-12-20T07:52:49;97937.73;;;-5.39;79.14
61357;BME280;47227;46.752;23.576;2022-12-20T07:55:18;97941.75;;;-5.43;78.34
61357;BME280;47227;46.752;23.576;2022-12-20T07:57:56;97946.02;;;-5.41;78.57
61357;BME280;47227;46.752;23.576;2022-12-20T08:00:25;97942.08;;;-5.38;78.68
61357;BME280;47227;46.752;23.576;2022-12-20T08:03:00;97940.15;;;-5.35;78.64
61357;BME280;47227;46.752;23.576;2022-12-20T08:05:30;97936.79;;;-5.33;78.63
61357;BME280;47227;46.752;23.576;2022-12-20T08:08:09;97933.11;;;-5.31;78.93
61357;BME280;47227;46.752;23.576;2022-12-20T08:10:49;97932.73;;;-5.31;78.74
61357;BME280;47227;46.752;23.576;2022-12-20T08:13:18;97929.26;;;-5.28;78.71
61357;BME280;47227;46.752;23.576;2022-12-20T08:15:51;97926.21;;;-5.23;79.02
61357;BME280;47227;46.752;23.576;2022-12-20T08:18:28;97923.46;;;-5.17;78.91
61357;BME280;47227;46.752;23.576;2022-12-20T08:21:23;97923.51;;;-5.11;79.09
61357;BME280;47227;46.752;23.576;2022-12-20T08:23:56;97925.73;;;-5.09;78.59
61357;BME280;47227;46.752;23.576;2022-12-20T08:26:27;97926.65;;;-5.10;78.63
61357;BME280;47227;46.752;23.576;2022-12-20T08:28:55;97926.61;;;-5.04;78.93
61357;BME280;47227;46.752;23.576;2022-12-20T08:31:23;97927.77;;;-4.96;79.25
61357;BME280;47227;46.752;23.576;2022-12-20T08:33:53;97928.16;;;-4.90;78.60
61357;BME280;47227;46.752;23.576;2022-12-20T08:36:21;97923.98;;;-4.84;78.63
61357;BME280;47227;46.752;23.576;2022-12-20T08:38:53;97917.59;;;-4.81;77.19
61357;BME280;47227;46.752;23.576;2022-12-20T08:41:23;97919.71;;;-4.74;76.26
61357;BME280;47227;46.752;23.576;2022-12-20T08:43:55;97915.26;;;-4.65;76.99
61357;BME280;47227;46.752;23.576;2022-12-20T08:46:23;97911.10;;;-4.55;77.33
61357;BME280;47227;46.752;23.576;2022-12-20T08:48:51;97905.34;;;-4.46;77.31
61357;BME280;47227;46.752;23.576;2022-12-20T08:51:21;97908.27;;;-4.35;77.56
61357;BME280;47227;46.752;23.576;2022-12-20T08:53:49;97907.00;;;-4.22;77.67
61357;BME280;47227;46.752;23.576;2022-12-20T08:56:19;97904.42;;;-4.10;77.90
61357;BME280;47227;46.752;23.576;2022-12-20T08:58:48;97900.85;;;-4.01;77.61
61357;BME280;47227;46.752;23.576;2022-12-20T09:01:18;97892.46;;;-3.95;77.19
61357;BME280;47227;46.752;23.576;2022-12-20T09:03:50;97886.36;;;-3.88;77.44
61357;BME280;47227;46.752;23.576;2022-12-20T09:06:21;97884.00;;;-3.80;77.76
61357;BME280;47227;46.752;23.576;2022-12-20T09:08:54;97875.08;;;-3.73;77.22
61357;BME280;47227;46.752;23.576;2022-12-20T09:11:26;97870.29;;;-3.63;77.07
61357;BME280;47227;46.752;23.576;2022-12-20T09:13:59;97863.06;;;-3.52;77.71
61357;BME280;47227;46.752;23.576;2022-12-20T09:16:32;97857.84;;;-3.37;77.48
61357;BME280;47227;46.752;23.576;2022-12-20T09:19:06;97860.70;;;-3.26;77.09
61357;BME280;47227;46.752;23.576;2022-12-20T09:21:40;97858.42;;;-3.15;77.24
61357;BME280;47227;46.752;23.576;2022-12-20T09:24:10;97854.02;;;-3.00;77.59
61357;BME280;47227;46.752;23.576;2022-12-20T09:26:38;97845.20;;;-2.86;76.84
61357;BME280;47227;46.752;23.576;2022-12-20T09:29:07;97842.73;;;-2.70;76.70
61357;BME280;47227;46.752;23.576;2022-12-20T09:31:38;97838.31;;;-2.58;75.82
61357;BME280;47227;46.752;23.576;2022-12-20T09:34:20;97834.92;;;-2.44;74.97
61357;BME280;47227;46.752;23.576;2022-12-20T09:37:18;97823.88;;;-2.29;74.66
61357;BME280;47227;46.752;23.576;2022-12-20T09:39:53;97820.33;;;-2.19;74.20
61357;BME280;47227;46.752;23.576;2022-12-20T09:42:26;97812.77;;;-2.09;74.21
61357;BME280;47227;46.752;23.576;2022-12-20T09:45:27;97808.98;;;-1.96;72.62
61357;BME280;47227;46.752;23.576;2022-12-20T09:48:05;97807.02;;;-1.83;72.00
61357;BME280;47227;46.752;23.576;2022-12-20T09:50:57;97800.79;;;-1.68;71.71
61357;BME280;47227;46.752;23.576;2022-12-20T09:54:29;97798.66;;;-1.56;70.67
61357;BME280;47227;46.752;23.576;2022-12-20T09:57:13;97790.36;;;-1.31;71.68
61357;BME280;47227;46.752;23.576;2022-12-20T09:59:55;97782.60;;;-1.04;72.14
61357;BME280;47227;46.752;23.576;2022-12-20T10:02:25;97777.67;;;-0.89;69.40
61357;BME280;47227;46.752;23.576;2022-12-20T10:05:28;97777.77;;;-0.84;68.57
61357;BME280;47227;46.752;23.576;2022-12-20T10:08:28;97774.64;;;-0.80;68.81
61357;BME280;47227;46.752;23.576;2022-12-20T10:11:18;97772.26;;;-0.72;68.51
61357;BME280;47227;46.752;23.576;2022-12-20T10:16:54;97754.55;;;-0.31;69.75
61357;BME280;47227;46.752;23.576;2022-12-20T10:19:53;97749.71;;;-0.05;69.35
61357;BME280;47227;46.752;23.576;2022-12-20T10:22:37;97748.59;;;0.26;69.23
61357;BME280;47227;46.752;23.576;2022-12-20T10:25:18;97743.02;;;0.50;68.97
61357;BME280;47227;46.752;23.576;2022-12-20T10:27:46;97734.35;;;0.72;67.85
61357;BME280;47227;46.752;23.576;2022-12-20T10:30:20;97730.91;;;0.84;64.69
61357;BME280;47227;46.752;23.576;2022-12-20T10:32:51;97724.12;;;1.03;65.28
61357;BME280;47227;46.752;23.576;2022-12-20T10:35:26;97707.91;;;1.22;65.64
61357;BME280;47227;46.752;23.576;2022-12-20T10:37:59;97702.02;;;1.40;65.31
61357;BME280;47227;46.752;23.576;2022-12-20T10:40:40;97700.87;;;1.61;64.18
61357;BME280;47227;46.752;23.576;2022-12-20T10:43:41;97684.84;;;1.80;63.20
61357;BME280;47227;46.752;23.576;2022-12-20T10:46:12;97678.80;;;2.02;63.22
61357;BME280;47227;46.752;23.576;2022-12-20T10:48:48;97674.07;;;2.14;61.80
61357;BME280;47227;46.752;23.576;2022-12-20T10:51:22;97676.33;;;2.36;62.01
61357;BME280;47227;46.752;23.576;2022-12-20T10:54:00;97678.40;;;2.39;61.07
61357;BME280;47227;46.752;23.576;2022-12-20T10:56:37;97673.14;;;2.28;60.43
61357;BME280;47227;46.752;23.576;2022-12-20T10:59:29;97676.02;;;2.20;60.62
61357;BME280;47227;46.752;23.576;2022-12-20T11:01:59;97673.08;;;2.25;60.40
61357;BME280;47227;46.752;23.576;2022-12-20T11:04:35;97666.14;;;2.55;60.27
61357;BME280;47227;46.752;23.576;2022-12-20T11:07:23;97660.41;;;2.52;59.25
61357;BME280;47227;46.752;23.576;2022-12-20T11:09:57;97661.83;;;2.78;58.90
61357;BME280;47227;46.752;23.576;2022-12-20T11:12:25;97663.52;;;2.77;58.00
61357;BME280;47227;46.752;23.576;2022-12-20T11:15:07;97657.67;;;2.81;57.75
61357;BME280;47227;46.752;23.576;2022-12-20T11:17:44;97655.05;;;3.06;58.39
61357;BME280;47227;46.752;23.576;2022-12-20T11:20:37;97651.65;;;3.33;57.65
61357;BME280;47227;46.752;23.576;2022-12-20T11:23:45;97655.80;;;2.97;57.44
61357;BME280;47227;46.752;23.576;2022-12-20T11:29:40;97669.08;;;2.83;58.61
61357;BME280;47227;46.752;23.576;2022-12-20T11:35:16;97650.27;;;3.46;59.83
61357;BME280;47227;46.752;23.576;2022-12-20T11:40:55;97635.27;;;3.67;58.29
61357;BME280;47227;46.752;23.576;2022-12-20T11:47:19;97607.44;;;3.21;58.64
61357;BME280;47227;46.752;23.576;2022-12-20T11:50:02;97600.14;;;2.90;59.39
61357;BME280;47227;46.752;23.576;2022-12-20T11:52:52;97597.11;;;2.67;59.85
61357;BME280;47227;46.752;23.576;2022-12-20T11:55:26;97595.66;;;2.31;60.38
61357;BME280;47227;46.752;23.576;2022-12-20T11:58:03;97606.88;;;2.02;61.35
61357;BME280;47227;46.752;23.576;2022-12-20T12:01:15;97612.09;;;1.81;62.14
61357;BME280;47227;46.752;23.576;2022-12-20T12:03:56;97612.65;;;1.72;63.07
61357;BME280;47227;46.752;23.576;2022-12-20T12:06:29;97610.42;;;1.71;63.36
61357;BME280;47227;46.752;23.576;2022-12-20T12:09:11;97609.92;;;1.97;63.55
61357;BME280;47227;46.752;23.576;2022-12-20T12:11:46;97614.16;;;2.06;63.45
61357;BME280;47227;46.752;23.576;2022-12-20T12:14:44;97609.27;;;2.03;63.38
61357;BME280;47227;46.752;23.576;2022-12-20T12:17:28;97606.90;;;2.21;62.79
61357;BME280;47227;46.752;23.576;2022-12-20T12:20:24;97604.08;;;2.30;62.73
61357;BME280;47227;46.752;23.576;2022-12-20T12:23:03;97606.04;;;1.98;63.19
61357;BME280;47227;46.752;23.576;2022-12-20T12:25:32;97602.02;;;2.22;63.65
61357;BME280;47227;46.752;23.576;2022-12-20T12:28:03;97597.95;;;2.49;63.58
61357;BME280;47227;46.752;23.576;2022-12-20T12:30:56;97598.01;;;2.73;62.65
61357;BME280;47227;46.752;23.576;2022-12-20T12:33:38;97602.73;;;2.77;61.98
61357;BME280;47227;46.752;23.576;2022-12-20T12:36:38;97602.98;;;2.81;61.26
61357;BME280;47227;46.752;23.576;2022-12-20T12:45:26;97599.65;;;3.62;60.21
61357;BME280;47227;46.752;23.576;2022-12-20T12:48:02;97590.13;;;3.87;58.68
61357;BME280;47227;46.752;23.576;2022-12-20T12:50:35;97584.05;;;4.32;59.23
61357;BME280;47227;46.752;23.576;2022-12-20T12:53:16;97580.27;;;4.59;58.09
61357;BME280;47227;46.752;23.576;2022-12-20T12:55:50;97577.15;;;4.69;57.44
61357;BME280;47227;46.752;23.576;2022-12-20T12:58:40;97575.29;;;4.85;56.06
61357;BME280;47227;46.752;23.576;2022-12-20T13:01:52;97581.87;;;4.93;55.54
61357;BME280;47227;46.752;23.576;2022-12-20T13:04:26;97586.67;;;4.60;55.25
61357;BME280;47227;46.752;23.576;2022-12-20T13:06:59;97584.40;;;4.84;56.36
61357;BME280;47227;46.752;23.576;2022-12-20T13:09:48;97589.77;;;4.71;54.70
61357;BME280;47227;46.752;23.576;2022-12-20T13:15:45;97594.10;;;3.86;56.62
61357;BME280;47227;46.752;23.576;2022-12-20T13:18:20;97593.48;;;3.45;57.48
61357;BME280;47227;46.752;23.576;2022-12-20T13:21:15;97592.97;;;3.40;58.19
61357;BME280;47227;46.752;23.576;2022-12-20T13:26:54;97583.73;;;3.14;59.00
61357;BME280;47227;46.752;23.576;2022-12-20T13:29:27;97574.89;;;3.06;59.62
61357;BME280;47227;46.752;23.576;2022-12-20T13:45:21;97565.80;;;3.42;58.91
61357;BME280;47227;46.752;23.576;2022-12-20T13:52:29;97557.83;;;2.90;59.67
61357;BME280;47227;46.752;23.576;2022-12-20T13:56:40;97559.74;;;2.35;61.72
61357;BME280;47227;46.752;23.576;2022-12-20T14:00:17;97560.77;;;1.76;63.38
61357;BME280;47227;46.752;23.576;2022-12-20T14:02:45;97561.86;;;1.35;64.37
61357;BME280;47227;46.752;23.576;2022-12-20T14:05:23;97564.02;;;1.12;65.33
61357;BME280;47227;46.752;23.576;2022-12-20T14:08:13;97555.59;;;0.98;64.84
61357;BME280;47227;46.752;23.576;2022-12-20T14:10:41;97556.08;;;0.85;64.60
61357;BME280;47227;46.752;23.576;2022-12-20T14:13:19;97560.86;;;0.73;65.31
61357;BME280;47227;46.752;23.576;2022-12-20T14:15:47;97562.66;;;0.56;67.68
61357;BME280;47227;46.752;23.576;2022-12-20T14:18:20;97563.59;;;0.32;69.55
61357;BME280;47227;46.752;23.576;2022-12-20T14:20:53;97566.14;;;0.03;70.86
61357;BME280;47227;46.752;23.576;2022-12-20T14:23:42;97562.69;;;-0.14;71.16
61357;BME280;47227;46.752;23.576;2022-12-20T14:26:14;97561.67;;;-0.22;70.60